createdAt,value
2022-10-07T00:00:52.031Z,93.60
2022-10-07T00:03:20.547Z,93.90
2022-10-07T00:05:48.045Z,94.00
2022-10-07T00:08:14.966Z,94.20
2022-10-07T00:10:43.260Z,94.40
2022-10-07T00:13:12.192Z,93.90
2022-10-07T00:15:39.360Z,93.80
2022-10-07T00:18:06.617Z,94.20
2022-10-07T00:20:40.580Z,94.20
2022-10-07T00:23:08.194Z,94.40
2022-10-07T00:25:38.153Z,93.40
2022-10-07T00:28:06.101Z,93.60
2022-10-07T00:30:33.398Z,93.90
2022-10-07T00:33:00.576Z,93.60
2022-10-07T00:35:27.393Z,93.80
2022-10-07T00:37:54.167Z,93.40
2022-10-07T00:40:21.180Z,94.10
2022-10-07T00:42:47.989Z,94.40
2022-10-07T00:45:16.232Z,94.20
2022-10-07T00:47:48.940Z,93.70
2022-10-07T00:50:26.531Z,93.70
2022-10-07T00:52:59.653Z,93.70
2022-10-07T00:55:29.679Z,93.90
2022-10-07T00:57:59.786Z,93.40
2022-10-07T01:00:26.635Z,93.70
2022-10-07T01:02:53.615Z,93.60
2022-10-07T01:05:20.939Z,94.00
2022-10-07T01:07:50.338Z,94.10
2022-10-07T01:10:20.197Z,94.40
2022-10-07T01:13:07.418Z,94.30
2022-10-07T01:15:43.080Z,94.20
2022-10-07T01:18:24.274Z,94.20
2022-10-07T01:21:02.935Z,94.20
2022-10-07T01:23:42.239Z,94.00
2022-10-07T01:26:39.145Z,94.10
2022-10-07T01:29:26.324Z,93.90
2022-10-07T01:32:12.976Z,93.70
2022-10-07T01:34:42.962Z,93.80
2022-10-07T01:37:15.160Z,94.00
2022-10-07T01:39:57.002Z,94.30
2022-10-07T01:42:26.272Z,93.20
2022-10-07T01:44:56.214Z,93.30
2022-10-07T01:47:24.859Z,93.80
2022-10-07T01:49:51.610Z,93.80
2022-10-07T01:52:51.559Z,93.70
2022-10-07T01:55:28.406Z,94.00
2022-10-07T01:58:26.300Z,93.50
2022-10-07T02:01:10.230Z,94.00
2022-10-07T02:03:46.647Z,93.90
2022-10-07T02:06:26.680Z,94.00
2022-10-07T02:08:55.640Z,93.80
2022-10-07T02:11:29.457Z,93.80
2022-10-07T02:14:11.928Z,93.70
2022-10-07T02:16:55.126Z,93.80
2022-10-07T02:19:34.778Z,94.10
2022-10-07T02:22:03.706Z,93.90
2022-10-07T02:24:34.290Z,94.20
2022-10-07T02:27:07.555Z,94.40
2022-10-07T02:29:36.945Z,94.00
2022-10-07T02:32:09.772Z,94.10
2022-10-07T02:34:39.461Z,93.90
2022-10-07T02:37:14.741Z,94.10
2022-10-07T02:39:43.544Z,94.30
2022-10-07T02:42:25.255Z,94.20
2022-10-07T02:45:13.347Z,94.40
2022-10-07T02:47:49.705Z,94.40
2022-10-07T02:50:22.418Z,94.50
2022-10-07T02:52:52.683Z,94.10
2022-10-07T02:55:24.615Z,94.10
2022-10-07T02:57:57.061Z,94.10
2022-10-07T03:00:23.878Z,94.10
2022-10-07T03:02:56.606Z,94.30
2022-10-07T03:05:25.894Z,94.30
2022-10-07T03:08:16.043Z,94.30
2022-10-07T03:10:43.114Z,94.40
2022-10-07T03:13:10.010Z,94.50
2022-10-07T03:15:42.107Z,94.40
2022-10-07T03:18:26.024Z,94.60
2022-10-07T03:20:55.334Z,94.50
2022-10-07T03:23:25.510Z,94.60
2022-10-07T03:25:54.748Z,94.70
2022-10-07T03:28:23.333Z,94.60
2022-10-07T03:30:50.808Z,94.60
2022-10-07T03:33:19.277Z,94.70
2022-10-07T03:35:46.099Z,94.60
2022-10-07T03:38:12.951Z,94.70
2022-10-07T03:40:40.077Z,95.00
2022-10-07T03:43:07.582Z,95.00
2022-10-07T03:45:37.359Z,94.70
2022-10-07T03:48:04.448Z,94.50
2022-10-07T03:50:31.203Z,94.10
2022-10-07T03:52:57.926Z,94.40
2022-10-07T03:55:24.674Z,94.50
2022-10-07T03:57:54.386Z,94.70
2022-10-07T04:00:26.054Z,94.30
2022-10-07T04:02:52.976Z,94.60
2022-10-07T04:05:21.277Z,94.50
2022-10-07T04:07:49.837Z,94.40
2022-10-07T04:10:18.702Z,94.40
2022-10-07T04:12:48.007Z,94.40
2022-10-07T04:15:15.174Z,94.50
2022-10-07T04:17:42.377Z,94.80
2022-10-07T04:20:09.917Z,94.40
2022-10-07T04:22:36.833Z,94.70
2022-10-07T04:25:24.281Z,94.70
2022-10-07T04:27:53.490Z,94.50
2022-10-07T04:30:21.618Z,94.90
2022-10-07T04:32:51.423Z,94.40
2022-10-07T04:35:20.032Z,94.50
2022-10-07T04:37:53.587Z,94.50
2022-10-07T04:40:21.746Z,94.50
2022-10-07T04:43:08.026Z,94.50
2022-10-07T04:45:35.935Z,94.50
2022-10-07T04:48:05.669Z,94.10
2022-10-07T04:50:38.557Z,94.60
2022-10-07T04:53:10.819Z,94.50
2022-10-07T04:55:40.001Z,94.30
2022-10-07T04:58:07.807Z,94.50
2022-10-07T05:00:35.762Z,94.50
2022-10-07T05:03:03.525Z,94.60
2022-10-07T05:05:30.302Z,94.40
2022-10-07T05:07:57.088Z,94.30
2022-10-07T05:10:23.925Z,94.20
2022-10-07T05:12:55.705Z,94.30
2022-10-07T05:15:23.491Z,94.40
2022-10-07T05:17:50.627Z,94.50
2022-10-07T05:20:17.427Z,94.40
2022-10-07T05:22:44.173Z,94.40
2022-10-07T05:25:10.893Z,94.20
2022-10-07T05:27:37.706Z,94.50
2022-10-07T05:30:04.875Z,94.30
2022-10-07T05:32:32.479Z,94.10
2022-10-07T05:34:59.221Z,94.20
2022-10-07T05:37:26.048Z,94.10
2022-10-07T05:39:52.921Z,94.30
2022-10-07T05:42:19.895Z,94.30
2022-10-07T05:44:46.736Z,94.50
2022-10-07T05:47:15.809Z,94.20
2022-10-07T05:49:43.080Z,94.40
2022-10-07T05:52:09.844Z,94.30
2022-10-07T05:54:36.595Z,94.40
2022-10-07T05:57:03.495Z,94.80
2022-10-07T05:59:31.214Z,94.30
2022-10-07T06:02:00.120Z,93.80
2022-10-07T06:04:29.883Z,94.10
2022-10-07T06:06:56.598Z,93.80
2022-10-07T06:09:42.046Z,93.20
2022-10-07T06:12:28.987Z,93.70
2022-10-07T06:14:55.704Z,93.50
2022-10-07T06:17:22.419Z,93.70
2022-10-07T06:19:49.155Z,93.30
2022-10-07T06:22:16.930Z,92.80
2022-10-07T06:24:43.736Z,93.60
2022-10-07T06:27:10.519Z,93.40
2022-10-07T06:29:37.231Z,93.90
2022-10-07T06:32:03.963Z,94.40
2022-10-07T06:34:30.723Z,94.20
2022-10-07T06:36:57.651Z,93.70
2022-10-07T06:39:24.371Z,93.30
2022-10-07T06:41:54.363Z,93.30
2022-10-07T06:44:21.392Z,93.00
2022-10-07T06:46:48.199Z,92.80
2022-10-07T06:49:14.914Z,92.90
2022-10-07T06:51:41.626Z,93.30
2022-10-07T06:54:08.430Z,92.90
2022-10-07T06:56:35.487Z,93.00
2022-10-07T06:59:03.209Z,92.70
2022-10-07T07:01:30.055Z,93.10
2022-10-07T07:03:57.184Z,92.50
2022-10-07T07:06:24.230Z,92.50
2022-10-07T07:08:51.496Z,92.80
2022-10-07T07:11:36.949Z,92.20
2022-10-07T07:14:14.113Z,92.50
2022-10-07T07:16:42.237Z,92.00
2022-10-07T07:19:11.991Z,92.20
2022-10-07T07:21:40.753Z,91.60
2022-10-07T07:24:07.804Z,91.30
2022-10-07T07:26:34.846Z,91.60
2022-10-07T07:29:03.747Z,91.50
2022-10-07T07:31:33.038Z,91.20
2022-10-07T07:34:02.390Z,90.80
2022-10-07T07:36:31.682Z,91.00
2022-10-07T07:39:00.526Z,91.60
2022-10-07T07:41:30.186Z,92.00
2022-10-07T07:43:59.109Z,91.10
2022-10-07T07:46:32.184Z,91.50
2022-10-07T07:48:58.919Z,92.30
2022-10-07T07:51:25.645Z,92.10
2022-10-07T07:53:52.438Z,91.50
2022-10-07T07:56:20.524Z,91.40
2022-10-07T07:58:47.710Z,91.80
2022-10-07T08:01:18.580Z,92.10
2022-10-07T08:03:47.508Z,92.10
2022-10-07T08:06:17.621Z,92.20
2022-10-07T08:08:44.518Z,91.90
2022-10-07T08:11:14.255Z,92.40
2022-10-07T08:13:41.767Z,92.50
2022-10-07T08:16:09.349Z,92.50
2022-10-07T08:18:36.080Z,91.70
2022-10-07T08:21:05.045Z,92.10
2022-10-07T08:23:31.834Z,91.70
2022-10-07T08:26:00.142Z,91.80
2022-10-07T08:28:28.325Z,92.10
2022-10-07T08:30:55.814Z,91.40
2022-10-07T08:33:22.914Z,91.10
2022-10-07T08:35:51.691Z,90.90
2022-10-07T08:38:18.517Z,90.90
2022-10-07T08:40:53.475Z,91.40
2022-10-07T08:43:23.707Z,90.70
2022-10-07T08:45:52.696Z,91.30
2022-10-07T08:48:29.511Z,91.40
2022-10-07T08:51:22.825Z,91.20
2022-10-07T08:53:52.739Z,90.30
2022-10-07T08:56:23.259Z,90.40
2022-10-07T08:59:13.785Z,90.10
2022-10-07T09:01:52.426Z,89.30
2022-10-07T09:04:25.199Z,89.20
2022-10-07T09:07:02.459Z,89.30
2022-10-07T09:09:54.955Z,89.90
2022-10-07T09:12:30.359Z,89.40
2022-10-07T09:14:59.235Z,89.20
2022-10-07T09:17:35.045Z,88.50
2022-10-07T09:20:09.923Z,89.70
2022-10-07T09:22:39.635Z,89.30
2022-10-07T09:25:13.340Z,88.70
2022-10-07T09:27:40.273Z,88.50
2022-10-07T09:30:07.684Z,88.00
2022-10-07T09:32:40.047Z,88.90
2022-10-07T09:35:11.583Z,88.20
2022-10-07T09:37:56.511Z,87.70
2022-10-07T09:41:04.561Z,88.10
2022-10-07T09:43:33.201Z,87.80
2022-10-07T09:46:01.322Z,86.90
2022-10-07T09:48:34.768Z,86.90
2022-10-07T09:51:16.514Z,86.00
2022-10-07T09:53:58.551Z,86.00
2022-10-07T09:56:38.604Z,86.40
2022-10-07T09:59:28.606Z,86.20
2022-10-07T10:02:13.598Z,84.50
2022-10-07T10:04:50.190Z,85.30
2022-10-07T10:07:27.270Z,83.70
2022-10-07T10:09:57.235Z,84.20
2022-10-07T10:12:25.109Z,85.10
2022-10-07T10:14:54.539Z,84.70
2022-10-07T10:17:30.038Z,82.40
2022-10-07T10:20:28.727Z,85.90
2022-10-07T10:22:56.675Z,82.60
2022-10-07T10:25:58.567Z,81.60
2022-10-07T10:29:07.144Z,81.90
2022-10-07T10:31:56.177Z,82.20
2022-10-07T10:34:38.252Z,81.10
2022-10-07T10:37:20.338Z,78.40
2022-10-07T10:39:58.982Z,78.20
2022-10-07T10:42:44.458Z,78.70
2022-10-07T10:45:40.687Z,78.30
2022-10-07T10:48:11.233Z,78.00
2022-10-07T10:51:02.852Z,77.00
2022-10-07T10:53:56.673Z,77.20
2022-10-07T10:56:27.023Z,74.10
2022-10-07T10:59:01.270Z,73.30
2022-10-07T11:01:34.965Z,74.80
2022-10-07T11:04:24.668Z,70.70
2022-10-07T11:07:07.315Z,65.50
2022-10-07T11:09:41.647Z,66.40
2022-10-07T11:12:30.505Z,67.20
2022-10-07T11:15:06.371Z,64.10
2022-10-07T11:17:37.463Z,68.60
2022-10-07T11:20:20.403Z,66.60
2022-10-07T11:22:57.037Z,68.70
2022-10-07T11:25:33.023Z,62.60
2022-10-07T11:28:13.235Z,62.90
2022-10-07T11:30:49.450Z,64.50
2022-10-07T11:33:35.935Z,66.40
2022-10-07T11:36:14.228Z,57.80
2022-10-07T11:38:42.613Z,61.70
2022-10-07T11:41:20.752Z,60.40
2022-10-07T11:43:53.745Z,57.40
2022-10-07T11:46:26.256Z,59.00
2022-10-07T11:49:04.989Z,59.00
2022-10-07T11:51:39.295Z,64.30
2022-10-07T11:54:13.518Z,58.90
2022-10-07T11:56:49.619Z,58.80
2022-10-07T11:59:31.699Z,61.90
2022-10-07T12:01:58.552Z,59.80
2022-10-07T12:04:33.892Z,57.90
2022-10-07T12:07:31.834Z,58.20
2022-10-07T12:10:04.892Z,58.20
2022-10-07T12:12:47.612Z,57.80
2022-10-07T12:15:28.991Z,56.90
2022-10-07T12:17:57.011Z,55.30
2022-10-07T12:20:44.915Z,52.80
2022-10-07T12:23:20.472Z,51.90
2022-10-07T12:25:58.806Z,50.60
2022-10-07T12:28:48.686Z,47.50
2022-10-07T12:31:15.634Z,46.60
2022-10-07T12:33:45.289Z,44.90
2022-10-07T12:36:31.316Z,45.30
2022-10-07T12:39:00.740Z,43.90
2022-10-07T12:41:40.490Z,43.00
2022-10-07T12:44:22.711Z,42.30
2022-10-07T12:46:54.092Z,41.60
2022-10-07T12:49:47.654Z,41.40
2022-10-07T12:52:24.135Z,42.30
2022-10-07T12:55:02.380Z,40.70
2022-10-07T12:57:39.323Z,39.70
2022-10-07T13:00:11.386Z,42.40
2022-10-07T13:02:57.076Z,43.50
2022-10-07T13:05:57.156Z,49.60
2022-10-07T13:08:36.083Z,51.90
2022-10-07T13:11:39.177Z,51.40
2022-10-07T13:14:26.402Z,53.60
2022-10-07T13:17:12.078Z,54.30
2022-10-07T13:19:54.966Z,55.10
2022-10-07T13:22:22.355Z,53.90
2022-10-07T13:24:54.371Z,51.50
2022-10-07T13:27:30.494Z,51.70
2022-10-07T13:30:00.009Z,52.90
2022-10-07T13:32:29.734Z,51.70
2022-10-07T13:34:58.439Z,53.10
2022-10-07T13:37:31.819Z,53.80
2022-10-07T13:40:30.923Z,57.60
2022-10-07T13:43:01.467Z,56.10
2022-10-07T13:45:33.289Z,56.40
2022-10-07T13:48:00.369Z,52.10
2022-10-07T13:50:30.627Z,53.10
2022-10-07T13:52:58.281Z,52.30
2022-10-07T13:55:35.938Z,53.40
2022-10-07T13:58:05.383Z,56.10
2022-10-07T14:00:36.004Z,55.20
2022-10-07T14:03:13.668Z,55.80
2022-10-07T14:05:51.912Z,57.00
2022-10-07T14:08:26.657Z,58.40
2022-10-07T14:11:06.392Z,57.50
2022-10-07T14:13:35.346Z,59.90
2022-10-07T14:16:02.111Z,58.70
2022-10-07T14:18:31.196Z,60.60
2022-10-07T14:21:09.437Z,63.90
2022-10-07T14:23:37.822Z,63.40
2022-10-07T14:26:14.175Z,63.90
2022-10-07T14:28:42.624Z,62.40
2022-10-07T14:31:29.792Z,63.50
2022-10-07T14:34:35.498Z,63.90
2022-10-07T14:37:17.264Z,62.80
2022-10-07T14:39:49.056Z,59.80
2022-10-07T14:42:36.159Z,58.60
2022-10-07T14:45:09.657Z,59.10
2022-10-07T14:47:36.421Z,58.50
2022-10-07T14:50:03.604Z,55.40
2022-10-07T14:52:46.786Z,52.30
2022-10-07T14:55:20.478Z,51.20
2022-10-07T14:57:48.085Z,51.40
2022-10-07T15:00:21.076Z,53.40
2022-10-07T15:02:50.287Z,53.50
2022-10-07T15:05:19.162Z,51.60
2022-10-07T15:07:46.522Z,50.40
2022-10-07T15:10:16.097Z,50.00
2022-10-07T15:12:44.326Z,51.10
2022-10-07T15:15:12.448Z,52.10
2022-10-07T15:17:40.069Z,50.70
2022-10-07T15:20:09.075Z,50.70
2022-10-07T15:22:36.270Z,50.80
2022-10-07T15:25:03.447Z,50.40
2022-10-07T15:27:31.551Z,51.00
2022-10-07T15:29:58.483Z,50.50
2022-10-07T15:32:25.315Z,51.90
2022-10-07T15:34:55.499Z,51.60
2022-10-07T15:37:22.546Z,51.10
2022-10-07T15:39:51.299Z,51.50
2022-10-07T15:42:18.804Z,53.10
2022-10-07T15:44:48.591Z,52.90
2022-10-07T15:47:15.509Z,54.50
2022-10-07T15:49:42.588Z,56.30
2022-10-07T15:52:11.641Z,57.60
2022-10-07T15:54:39.414Z,58.80
2022-10-07T15:57:08.229Z,59.60
2022-10-07T15:59:35.668Z,61.50
2022-10-07T16:02:04.212Z,63.70
2022-10-07T16:04:31.031Z,65.50
2022-10-07T16:06:58.073Z,67.20
2022-10-07T16:09:24.869Z,69.40
2022-10-07T16:11:51.686Z,70.80
2022-10-07T16:14:18.494Z,72.90
2022-10-07T16:16:46.098Z,74.30
2022-10-07T16:19:13.113Z,75.40
2022-10-07T16:21:42.162Z,76.90
2022-10-07T16:24:12.910Z,78.10
2022-10-07T16:26:39.660Z,79.10
2022-10-07T16:29:31.020Z,79.80
2022-10-07T16:31:59.119Z,80.90
2022-10-07T16:34:28.191Z,81.50
2022-10-07T16:36:56.578Z,82.20
2022-10-07T16:39:23.621Z,82.50
2022-10-07T16:41:52.173Z,82.80
2022-10-07T16:44:19.859Z,83.30
2022-10-07T16:46:47.230Z,83.80
2022-10-07T16:49:16.790Z,84.80
2022-10-07T16:51:44.715Z,85.30
2022-10-07T16:54:16.594Z,85.60
2022-10-07T16:56:49.875Z,85.30
2022-10-07T16:59:26.084Z,85.20
2022-10-07T17:01:55.473Z,85.40
2022-10-07T17:04:24.352Z,85.80
2022-10-07T17:06:51.223Z,85.90
2022-10-07T17:09:18.416Z,86.00
2022-10-07T17:11:45.612Z,86.40
2022-10-07T17:14:17.811Z,86.80
2022-10-07T17:16:47.472Z,87.60
2022-10-07T17:19:19.770Z,88.20
2022-10-07T17:21:47.896Z,88.30
2022-10-07T17:24:16.691Z,87.20
2022-10-07T17:26:44.554Z,87.50
2022-10-07T17:29:13.139Z,87.60
2022-10-07T17:31:47.989Z,88.10
2022-10-07T17:34:16.156Z,88.40
2022-10-07T17:36:46.979Z,88.40
2022-10-07T17:39:13.903Z,88.20
2022-10-07T17:41:40.754Z,88.30
2022-10-07T17:44:10.084Z,88.20
2022-10-07T17:46:39.202Z,88.40
2022-10-07T17:49:08.473Z,88.40
2022-10-07T17:51:37.041Z,88.50
2022-10-07T17:54:04.997Z,88.50
2022-10-07T17:56:32.052Z,88.50
2022-10-07T17:58:58.933Z,88.50
2022-10-07T18:01:32.784Z,88.50
2022-10-07T18:04:09.501Z,89.30
2022-10-07T18:06:37.902Z,89.50
2022-10-07T18:09:06.728Z,90.10
2022-10-07T18:11:53.061Z,90.30
2022-10-07T18:14:38.311Z,90.30
2022-10-07T18:17:06.165Z,90.30
2022-10-07T18:19:33.165Z,90.10
2022-10-07T18:21:59.912Z,89.90
2022-10-07T18:24:28.669Z,89.90
2022-10-07T18:26:59.795Z,89.80
2022-10-07T18:29:32.675Z,89.80
2022-10-07T18:32:00.146Z,89.70
2022-10-07T18:34:27.030Z,90.20
2022-10-07T18:36:56.617Z,90.30
2022-10-07T18:39:24.995Z,90.40
2022-10-07T18:41:51.690Z,90.50
2022-10-07T18:44:18.625Z,90.30
2022-10-07T18:46:45.441Z,90.70
2022-10-07T18:49:14.887Z,91.10
2022-10-07T18:51:41.949Z,91.40
2022-10-07T18:54:09.894Z,91.30
2022-10-07T18:56:40.851Z,91.10
2022-10-07T18:59:09.703Z,91.30
2022-10-07T19:01:37.359Z,90.60
2022-10-07T19:04:06.051Z,90.30
2022-10-07T19:06:35.170Z,90.40
2022-10-07T19:09:05.895Z,90.30
2022-10-07T19:11:32.933Z,90.60
2022-10-07T19:14:00.217Z,90.20
2022-10-07T19:16:29.269Z,90.10
2022-10-07T19:18:58.067Z,90.10
2022-10-07T19:21:26.010Z,90.20
2022-10-07T19:24:01.851Z,90.30
2022-10-07T19:26:33.903Z,90.20
2022-10-07T19:29:01.261Z,90.20
2022-10-07T19:31:31.020Z,90.40
2022-10-07T19:34:06.015Z,90.80
2022-10-07T19:36:36.344Z,91.00
2022-10-07T19:39:03.983Z,90.90
2022-10-07T19:41:32.570Z,90.80
2022-10-07T19:43:59.972Z,90.70
2022-10-07T19:46:29.233Z,90.80
2022-10-07T19:48:58.246Z,91.30
2022-10-07T19:51:27.115Z,91.50
2022-10-07T19:53:57.141Z,90.90
2022-10-07T19:56:32.330Z,90.80
2022-10-07T19:59:02.311Z,91.00
2022-10-07T20:01:32.142Z,91.10
2022-10-07T20:04:07.396Z,91.90
2022-10-07T20:06:38.755Z,91.80
2022-10-07T20:09:07.911Z,92.00
2022-10-07T20:11:34.968Z,92.30
2022-10-07T20:14:02.982Z,91.90
2022-10-07T20:16:31.391Z,91.80
2022-10-07T20:19:05.591Z,91.20
2022-10-07T20:21:35.401Z,91.50
2022-10-07T20:24:03.114Z,91.70
2022-10-07T20:26:35.627Z,91.50
2022-10-07T20:29:06.970Z,91.80
2022-10-07T20:31:36.339Z,91.80
2022-10-07T20:34:03.323Z,92.10
2022-10-07T20:36:36.311Z,92.00
2022-10-07T20:39:31.254Z,92.10
2022-10-07T20:42:16.607Z,91.80
2022-10-07T20:44:43.391Z,92.30
2022-10-07T20:47:10.932Z,91.80
2022-10-07T20:49:41.297Z,91.50
2022-10-07T20:52:21.075Z,91.80
2022-10-07T20:54:48.200Z,91.60
2022-10-07T20:57:17.534Z,91.50
2022-10-07T20:59:44.366Z,91.80
2022-10-07T21:02:13.107Z,91.60
2022-10-07T21:04:39.894Z,91.60
2022-10-07T21:07:08.157Z,92.20
2022-10-07T21:09:37.643Z,92.00
2022-10-07T21:12:07.366Z,92.30
2022-10-07T21:14:37.807Z,92.00
2022-10-07T21:17:06.297Z,91.80
2022-10-07T21:19:35.584Z,91.80
2022-10-07T21:22:03.805Z,91.10
2022-10-07T21:24:34.298Z,91.60
2022-10-07T21:27:05.837Z,91.80
2022-10-07T21:29:36.266Z,92.20
2022-10-07T21:32:06.401Z,92.40
2022-10-07T21:34:33.135Z,92.60
2022-10-07T21:37:00.118Z,92.50
2022-10-07T21:39:27.001Z,92.50
2022-10-07T21:41:54.302Z,92.40
2022-10-07T21:44:21.103Z,92.60
2022-10-07T21:46:47.887Z,92.60
2022-10-07T21:49:15.851Z,92.10
2022-10-07T21:51:43.605Z,92.10
2022-10-07T21:54:13.721Z,92.30
2022-10-07T21:56:40.705Z,92.20
2022-10-07T21:59:07.413Z,92.20
2022-10-07T22:01:34.237Z,92.20
2022-10-07T22:04:02.632Z,92.10
2022-10-07T22:06:50.341Z,91.70
2022-10-07T22:09:20.904Z,91.80
2022-10-07T22:11:48.756Z,91.60
2022-10-07T22:14:15.482Z,91.30
2022-10-07T22:16:42.523Z,91.20
2022-10-07T22:19:10.607Z,91.50
2022-10-07T22:21:40.099Z,91.50
2022-10-07T22:24:08.267Z,91.30
2022-10-07T22:26:46.781Z,91.30
2022-10-07T22:29:16.149Z,91.10
2022-10-07T22:31:43.100Z,91.30
2022-10-07T22:34:30.058Z,91.10
2022-10-07T22:36:58.100Z,91.50
2022-10-07T22:39:25.867Z,91.90
2022-10-07T22:41:53.192Z,92.00
2022-10-07T22:44:20.143Z,92.50
2022-10-07T22:46:46.857Z,92.60
2022-10-07T22:49:14.933Z,92.60
2022-10-07T22:51:42.492Z,92.30
2022-10-07T22:54:12.576Z,92.40
2022-10-07T22:56:39.520Z,92.20
2022-10-07T22:59:08.398Z,92.40
2022-10-07T23:01:35.400Z,92.30
2022-10-07T23:04:03.195Z,91.70
2022-10-07T23:06:32.946Z,91.50
2022-10-07T23:09:00.300Z,91.60
2022-10-07T23:11:28.925Z,91.20
2022-10-07T23:13:55.878Z,91.30
2022-10-07T23:16:25.766Z,91.40
2022-10-07T23:18:53.578Z,91.50
2022-10-07T23:21:26.103Z,91.70
2022-10-07T23:24:01.742Z,92.60
2022-10-07T23:26:31.561Z,92.70
2022-10-07T23:29:00.297Z,92.80
2022-10-07T23:31:29.292Z,92.80
2022-10-07T23:33:57.693Z,92.90
2022-10-07T23:36:25.511Z,92.60
2022-10-07T23:38:53.230Z,92.50
2022-10-07T23:41:24.907Z,92.10
2022-10-07T23:43:53.452Z,92.20
2022-10-07T23:46:21.957Z,92.10
2022-10-07T23:48:49.370Z,92.00
2022-10-07T23:51:18.762Z,92.10
2022-10-07T23:53:47.345Z,91.90
2022-10-07T23:56:14.492Z,92.00
2022-10-07T23:58:41.302Z,92.20
